sensor_id;sensor_type;location;lat;lon;timestamp;temperature;humidity
45115;DHT22;30877;43.706;10.780;2023-05-10T00:06:34;17.70;96.70
45115;DHT22;30877;43.706;10.780;2023-05-10T00:09:04;17.70;96.70
45115;DHT22;30877;43.706;10.780;2023-05-10T00:11:33;17.70;96.70
45115;DHT22;30877;43.706;10.780;2023-05-10T00:14:01;17.70;96.70
45115;DHT22;30877;43.706;10.780;2023-05-10T00:16:32;17.60;96.70
45115;DHT22;30877;43.706;10.780;2023-05-10T00:19:02;17.50;96.70
45115;DHT22;30877;43.706;10.780;2023-05-10T00:21:31;17.40;96.70
45115;DHT22;30877;43.706;10.780;2023-05-10T00:24:02;17.40;96.70
45115;DHT22;30877;43.706;10.780;2023-05-10T00:26:31;17.40;96.70
45115;DHT22;30877;43.706;10.780;2023-05-10T00:29:00;17.40;96.70
45115;DHT22;30877;43.706;10.780;2023-05-10T00:31:31;17.40;96.70
45115;DHT22;30877;43.706;10.780;2023-05-10T00:33:59;17.40;96.70
45115;DHT22;30877;43.706;10.780;2023-05-10T00:36:29;17.50;96.70
45115;DHT22;30877;43.706;10.780;2023-05-10T00:38:57;17.50;96.70
45115;DHT22;30877;43.706;10.780;2023-05-10T00:41:27;17.40;96.70
45115;DHT22;30877;43.706;10.780;2023-05-10T00:43:56;17.40;96.70
45115;DHT22;30877;43.706;10.780;2023-05-10T00:46:25;17.40;96.70
45115;DHT22;30877;43.706;10.780;2023-05-10T00:48:56;17.50;96.70
45115;DHT22;30877;43.706;10.780;2023-05-10T00:51:25;17.50;96.70
45115;DHT22;30877;43.706;10.780;2023-05-10T00:53:54;17.50;96.70
45115;DHT22;30877;43.706;10.780;2023-05-10T00:56:25;17.50;96.70
45115;DHT22;30877;43.706;10.780;2023-05-10T00:58:54;17.50;96.70
45115;DHT22;30877;43.706;10.780;2023-05-10T01:01:23;17.50;96.70
45115;DHT22;30877;43.706;10.780;2023-05-10T01:03:52;17.50;96.70
45115;DHT22;30877;43.706;10.780;2023-05-10T01:06:25;17.60;96.70
45115;DHT22;30877;43.706;10.780;2023-05-10T01:21:43;18.30;96.70
45115;DHT22;30877;43.706;10.780;2023-05-10T01:24:49;18.30;96.70
45115;DHT22;30877;43.706;10.780;2023-05-10T01:27:38;18.50;96.70
45115;DHT22;30877;43.706;10.780;2023-05-10T01:33:24;18.70;96.70
45115;DHT22;30877;43.706;10.780;2023-05-10T01:35:59;18.80;96.70
45115;DHT22;30877;43.706;10.780;2023-05-10T01:38:32;19.00;96.70
45115;DHT22;30877;43.706;10.780;2023-05-10T01:41:09;19.10;96.70
45115;DHT22;30877;43.706;10.780;2023-05-10T01:43:47;19.10;96.70
45115;DHT22;30877;43.706;10.780;2023-05-10T01:46:20;19.10;96.70
45115;DHT22;30877;43.706;10.780;2023-05-10T01:48:54;19.10;96.70
45115;DHT22;30877;43.706;10.780;2023-05-10T01:51:25;19.10;96.70
45115;DHT22;30877;43.706;10.780;2023-05-10T01:53:58;19.10;96.70
45115;DHT22;30877;43.706;10.780;2023-05-10T01:56:29;19.10;96.70
45115;DHT22;30877;43.706;10.780;2023-05-10T01:59:00;19.10;96.70
45115;DHT22;30877;43.706;10.780;2023-05-10T02:01:32;19.00;96.70
45115;DHT22;30877;43.706;10.780;2023-05-10T02:04:03;19.00;96.70
45115;DHT22;30877;43.706;10.780;2023-05-10T02:06:33;19.10;96.70
45115;DHT22;30877;43.706;10.780;2023-05-10T02:09:03;19.10;96.70
45115;DHT22;30877;43.706;10.780;2023-05-10T02:11:32;19.00;96.70
45115;DHT22;30877;43.706;10.780;2023-05-10T02:14:00;19.00;96.70
45115;DHT22;30877;43.706;10.780;2023-05-10T02:16:30;19.10;96.70
45115;DHT22;30877;43.706;10.780;2023-05-10T02:19:03;19.10;96.70
45115;DHT22;30877;43.706;10.780;2023-05-10T02:21:34;19.20;96.70
45115;DHT22;30877;43.706;10.780;2023-05-10T02:24:03;19.10;96.70
45115;DHT22;30877;43.706;10.780;2023-05-10T03:03:37;18.90;96.70
45115;DHT22;30877;43.706;10.780;2023-05-10T03:06:05;18.90;96.70
45115;DHT22;30877;43.706;10.780;2023-05-10T03:08:34;18.80;96.70
45115;DHT22;30877;43.706;10.780;2023-05-10T03:11:23;18.70;96.70
45115;DHT22;30877;43.706;10.780;2023-05-10T03:14:10;18.70;96.70
45115;DHT22;30877;43.706;10.780;2023-05-10T03:16:44;18.80;96.70
45115;DHT22;30877;43.706;10.780;2023-05-10T03:19:24;18.90;96.70
45115;DHT22;30877;43.706;10.780;2023-05-10T03:21:58;18.90;96.70
45115;DHT22;30877;43.706;10.780;2023-05-10T03:24:34;19.00;96.70
45115;DHT22;30877;43.706;10.780;2023-05-10T04:11:41;18.60;96.70
45115;DHT22;30877;43.706;10.780;2023-05-10T04:14:10;18.60;96.70
45115;DHT22;30877;43.706;10.780;2023-05-10T04:16:39;18.60;96.70
45115;DHT22;30877;43.706;10.780;2023-05-10T04:19:08;18.60;96.70
45115;DHT22;30877;43.706;10.780;2023-05-10T04:21:37;18.50;96.70
45115;DHT22;30877;43.706;10.780;2023-05-10T04:24:06;18.50;96.70
45115;DHT22;30877;43.706;10.780;2023-05-10T04:26:36;18.50;96.70
45115;DHT22;30877;43.706;10.780;2023-05-10T04:29:08;18.50;96.70
45115;DHT22;30877;43.706;10.780;2023-05-10T04:31:36;18.60;96.70
45115;DHT22;30877;43.706;10.780;2023-05-10T04:34:05;18.60;96.70
45115;DHT22;30877;43.706;10.780;2023-05-10T04:36:33;18.60;96.70
45115;DHT22;30877;43.706;10.780;2023-05-10T04:39:03;18.50;96.70
45115;DHT22;30877;43.706;10.780;2023-05-10T04:41:32;18.40;96.70
45115;DHT22;30877;43.706;10.780;2023-05-10T04:44:00;18.50;96.70
45115;DHT22;30877;43.706;10.780;2023-05-10T04:54:48;18.40;96.70
45115;DHT22;30877;43.706;10.780;2023-05-10T04:57:16;18.30;96.70
45115;DHT22;30877;43.706;10.780;2023-05-10T04:59:44;18.30;96.70
45115;DHT22;30877;43.706;10.780;2023-05-10T05:02:14;18.30;96.70
45115;DHT22;30877;43.706;10.780;2023-05-10T05:04:42;18.30;96.70
45115;DHT22;30877;43.706;10.780;2023-05-10T05:07:10;18.20;96.70
45115;DHT22;30877;43.706;10.780;2023-05-10T05:09:38;18.10;96.70
45115;DHT22;30877;43.706;10.780;2023-05-10T05:12:08;18.00;96.70
45115;DHT22;30877;43.706;10.780;2023-05-10T05:14:36;18.20;96.70
45115;DHT22;30877;43.706;10.780;2023-05-10T05:17:04;18.30;96.70
45115;DHT22;30877;43.706;10.780;2023-05-10T05:19:38;18.30;96.70
45115;DHT22;30877;43.706;10.780;2023-05-10T05:22:06;18.40;96.70
45115;DHT22;30877;43.706;10.780;2023-05-10T05:24:35;18.50;96.70
45115;DHT22;30877;43.706;10.780;2023-05-10T05:27:08;18.50;96.70
45115;DHT22;30877;43.706;10.780;2023-05-10T05:29:36;18.40;96.70
45115;DHT22;30877;43.706;10.780;2023-05-10T05:32:04;18.50;96.70
45115;DHT22;30877;43.706;10.780;2023-05-10T05:34:32;18.50;96.70
45115;DHT22;30877;43.706;10.780;2023-05-10T05:37:01;18.50;96.70
45115;DHT22;30877;43.706;10.780;2023-05-10T05:39:29;18.30;96.70
45115;DHT22;30877;43.706;10.780;2023-05-10T05:41:57;18.40;96.70
45115;DHT22;30877;43.706;10.780;2023-05-10T05:44:27;18.40;96.70
45115;DHT22;30877;43.706;10.780;2023-05-10T05:46:56;18.30;96.70
45115;DHT22;30877;43.706;10.780;2023-05-10T05:49:24;18.40;96.70
45115;DHT22;30877;43.706;10.780;2023-05-10T05:51:52;18.30;96.70
45115;DHT22;30877;43.706;10.780;2023-05-10T05:54:20;18.40;96.70
45115;DHT22;30877;43.706;10.780;2023-05-10T05:56:49;18.40;96.70
45115;DHT22;30877;43.706;10.780;2023-05-10T05:59:17;18.50;96.70
45115;DHT22;30877;43.706;10.780;2023-05-10T06:01:46;18.50;96.70
45115;DHT22;30877;43.706;10.780;2023-05-10T06:04:14;18.50;96.70
45115;DHT22;30877;43.706;10.780;2023-05-10T06:06:43;18.50;96.70
45115;DHT22;30877;43.706;10.780;2023-05-10T06:09:11;18.60;96.70
45115;DHT22;30877;43.706;10.780;2023-05-10T06:11:40;18.50;96.70
45115;DHT22;30877;43.706;10.780;2023-05-10T06:14:08;18.50;96.70
45115;DHT22;30877;43.706;10.780;2023-05-10T06:16:37;18.50;96.70
45115;DHT22;30877;43.706;10.780;2023-05-10T06:19:06;18.50;96.70
45115;DHT22;30877;43.706;10.780;2023-05-10T06:21:34;18.60;96.70
45115;DHT22;30877;43.706;10.780;2023-05-10T06:24:03;18.70;96.70
45115;DHT22;30877;43.706;10.780;2023-05-10T06:26:31;18.70;96.70
45115;DHT22;30877;43.706;10.780;2023-05-10T06:28:59;18.70;96.70
45115;DHT22;30877;43.706;10.780;2023-05-10T06:31:27;18.70;96.70
45115;DHT22;30877;43.706;10.780;2023-05-10T06:33:55;18.80;96.70
45115;DHT22;30877;43.706;10.780;2023-05-10T06:36:25;18.90;96.70
45115;DHT22;30877;43.706;10.780;2023-05-10T06:38:54;18.90;96.70
45115;DHT22;30877;43.706;10.780;2023-05-10T06:41:22;18.90;96.70
45115;DHT22;30877;43.706;10.780;2023-05-10T06:43:51;19.00;96.70
45115;DHT22;30877;43.706;10.780;2023-05-10T06:46:19;19.00;96.70
45115;DHT22;30877;43.706;10.780;2023-05-10T06:48:47;19.00;96.70
45115;DHT22;30877;43.706;10.780;2023-05-10T06:51:15;18.90;96.70
45115;DHT22;30877;43.706;10.780;2023-05-10T06:53:47;19.00;96.70
45115;DHT22;30877;43.706;10.780;2023-05-10T06:56:15;19.00;96.70
45115;DHT22;30877;43.706;10.780;2023-05-10T06:58:43;19.00;96.70
45115;DHT22;30877;43.706;10.780;2023-05-10T07:01:12;19.00;96.70
45115;DHT22;30877;43.706;10.780;2023-05-10T07:03:40;19.10;96.70
45115;DHT22;30877;43.706;10.780;2023-05-10T07:06:08;19.20;96.70
45115;DHT22;30877;43.706;10.780;2023-05-10T07:08:58;19.30;96.70
45115;DHT22;30877;43.706;10.780;2023-05-10T07:11:26;19.40;96.70
45115;DHT22;30877;43.706;10.780;2023-05-10T07:13:54;19.30;96.70
45115;DHT22;30877;43.706;10.780;2023-05-10T07:16:23;19.20;96.70
45115;DHT22;30877;43.706;10.780;2023-05-10T07:18:52;19.20;96.70
45115;DHT22;30877;43.706;10.780;2023-05-10T07:21:21;19.30;96.70
45115;DHT22;30877;43.706;10.780;2023-05-10T07:23:51;19.30;96.70
45115;DHT22;30877;43.706;10.780;2023-05-10T07:26:21;19.40;96.70
45115;DHT22;30877;43.706;10.780;2023-05-10T07:28:50;19.30;96.70
45115;DHT22;30877;43.706;10.780;2023-05-10T07:31:18;19.40;96.70
45115;DHT22;30877;43.706;10.780;2023-05-10T07:33:46;19.50;96.70
45115;DHT22;30877;43.706;10.780;2023-05-10T07:36:14;19.60;96.70
45115;DHT22;30877;43.706;10.780;2023-05-10T07:38:42;19.70;96.70
45115;DHT22;30877;43.706;10.780;2023-05-10T07:41:11;19.70;96.70
45115;DHT22;30877;43.706;10.780;2023-05-10T07:43:41;19.70;96.70
45115;DHT22;30877;43.706;10.780;2023-05-10T07:46:09;19.60;96.70
45115;DHT22;30877;43.706;10.780;2023-05-10T07:48:38;19.70;96.70
45115;DHT22;30877;43.706;10.780;2023-05-10T07:51:06;19.80;96.70
45115;DHT22;30877;43.706;10.780;2023-05-10T07:53:38;19.80;96.70
45115;DHT22;30877;43.706;10.780;2023-05-10T07:56:21;19.80;96.70
45115;DHT22;30877;43.706;10.780;2023-05-10T07:58:51;19.70;96.70
45115;DHT22;30877;43.706;10.780;2023-05-10T08:01:19;19.70;96.70
45115;DHT22;30877;43.706;10.780;2023-05-10T08:03:47;19.70;96.70
45115;DHT22;30877;43.706;10.780;2023-05-10T08:06:17;19.70;96.70
45115;DHT22;30877;43.706;10.780;2023-05-10T08:08:46;19.70;96.70
45115;DHT22;30877;43.706;10.780;2023-05-10T08:11:17;19.80;96.70
45115;DHT22;30877;43.706;10.780;2023-05-10T08:13:45;19.80;96.70
45115;DHT22;30877;43.706;10.780;2023-05-10T08:16:15;19.80;96.70
45115;DHT22;30877;43.706;10.780;2023-05-10T08:18:43;19.90;96.70
45115;DHT22;30877;43.706;10.780;2023-05-10T08:21:13;19.80;96.70
45115;DHT22;30877;43.706;10.780;2023-05-10T08:23:41;19.80;96.70
45115;DHT22;30877;43.706;10.780;2023-05-10T08:26:11;19.90;96.70
45115;DHT22;30877;43.706;10.780;2023-05-10T08:28:40;19.80;96.70
45115;DHT22;30877;43.706;10.780;2023-05-10T08:31:08;19.80;96.70
45115;DHT22;30877;43.706;10.780;2023-05-10T08:33:37;19.80;96.70
45115;DHT22;30877;43.706;10.780;2023-05-10T08:36:06;19.70;96.70
45115;DHT22;30877;43.706;10.780;2023-05-10T08:38:34;19.60;96.70
45115;DHT22;30877;43.706;10.780;2023-05-10T08:41:03;19.60;96.70
45115;DHT22;30877;43.706;10.780;2023-05-10T08:43:33;19.60;96.70
45115;DHT22;30877;43.706;10.780;2023-05-10T08:46:05;19.60;96.70
45115;DHT22;30877;43.706;10.780;2023-05-10T08:48:37;19.60;96.70
45115;DHT22;30877;43.706;10.780;2023-05-10T08:51:06;19.60;96.70
45115;DHT22;30877;43.706;10.780;2023-05-10T08:53:39;19.60;96.70
45115;DHT22;30877;43.706;10.780;2023-05-10T08:56:07;19.50;96.70
45115;DHT22;30877;43.706;10.780;2023-05-10T08:58:36;19.50;96.70
45115;DHT22;30877;43.706;10.780;2023-05-10T09:01:05;19.50;96.70
45115;DHT22;30877;43.706;10.780;2023-05-10T09:03:33;19.50;96.70
45115;DHT22;30877;43.706;10.780;2023-05-10T09:06:03;19.50;96.70
45115;DHT22;30877;43.706;10.780;2023-05-10T09:08:33;19.40;96.70
45115;DHT22;30877;43.706;10.780;2023-05-10T09:11:01;19.40;96.70
45115;DHT22;30877;43.706;10.780;2023-05-10T09:13:31;19.50;96.70
45115;DHT22;30877;43.706;10.780;2023-05-10T09:16:00;19.40;96.70
45115;DHT22;30877;43.706;10.780;2023-05-10T09:18:46;19.40;96.70
45115;DHT22;30877;43.706;10.780;2023-05-10T09:21:16;19.30;96.70
45115;DHT22;30877;43.706;10.780;2023-05-10T09:23:44;19.40;96.70
45115;DHT22;30877;43.706;10.780;2023-05-10T09:26:15;19.40;96.70
45115;DHT22;30877;43.706;10.780;2023-05-10T09:28:53;19.40;96.70
45115;DHT22;30877;43.706;10.780;2023-05-10T09:31:22;19.50;96.70
45115;DHT22;30877;43.706;10.780;2023-05-10T09:33:51;19.40;96.70
45115;DHT22;30877;43.706;10.780;2023-05-10T09:36:21;19.30;96.70
45115;DHT22;30877;43.706;10.780;2023-05-10T09:38:50;19.30;96.70
45115;DHT22;30877;43.706;10.780;2023-05-10T09:41:20;19.30;96.70
45115;DHT22;30877;43.706;10.780;2023-05-10T09:43:49;19.30;96.70
45115;DHT22;30877;43.706;10.780;2023-05-10T09:46:17;19.30;96.70
45115;DHT22;30877;43.706;10.780;2023-05-10T09:48:46;19.30;96.70
45115;DHT22;30877;43.706;10.780;2023-05-10T09:51:24;19.40;96.70
45115;DHT22;30877;43.706;10.780;2023-05-10T09:54:09;19.40;96.70
45115;DHT22;30877;43.706;10.780;2023-05-10T09:56:39;19.40;96.70
45115;DHT22;30877;43.706;10.780;2023-05-10T09:59:11;19.40;96.70
45115;DHT22;30877;43.706;10.780;2023-05-10T10:01:41;19.40;96.70
45115;DHT22;30877;43.706;10.780;2023-05-10T10:04:10;19.40;96.70
45115;DHT22;30877;43.706;10.780;2023-05-10T10:06:40;19.40;96.70
45115;DHT22;30877;43.706;10.780;2023-05-10T10:09:08;19.30;96.70
45115;DHT22;30877;43.706;10.780;2023-05-10T10:11:37;19.30;96.70
45115;DHT22;30877;43.706;10.780;2023-05-10T10:14:06;19.30;96.70
45115;DHT22;30877;43.706;10.780;2023-05-10T10:16:34;19.40;96.70
45115;DHT22;30877;43.706;10.780;2023-05-10T10:19:02;19.50;96.70
45115;DHT22;30877;43.706;10.780;2023-05-10T10:21:31;19.50;96.70
45115;DHT22;30877;43.706;10.780;2023-05-10T10:24:01;19.50;96.70
45115;DHT22;30877;43.706;10.780;2023-05-10T10:26:29;19.40;96.70
45115;DHT22;30877;43.706;10.780;2023-05-10T10:29:08;19.40;96.70
45115;DHT22;30877;43.706;10.780;2023-05-10T10:31:41;19.40;96.70
45115;DHT22;30877;43.706;10.780;2023-05-10T10:34:22;19.40;96.70
45115;DHT22;30877;43.706;10.780;2023-05-10T10:36:54;19.40;96.70
45115;DHT22;30877;43.706;10.780;2023-05-10T10:39:25;19.40;96.70
45115;DHT22;30877;43.706;10.780;2023-05-10T10:41:55;19.50;96.70
45115;DHT22;30877;43.706;10.780;2023-05-10T10:44:25;19.50;96.70
45115;DHT22;30877;43.706;10.780;2023-05-10T10:47:10;19.60;96.70
45115;DHT22;30877;43.706;10.780;2023-05-10T10:49:43;19.40;96.70
45115;DHT22;30877;43.706;10.780;2023-05-10T10:52:21;19.50;96.70
45115;DHT22;30877;43.706;10.780;2023-05-10T10:54:53;19.50;96.70
45115;DHT22;30877;43.706;10.780;2023-05-10T10:57:25;19.50;96.70
45115;DHT22;30877;43.706;10.780;2023-05-10T11:00:20;19.60;96.70
45115;DHT22;30877;43.706;10.780;2023-05-10T11:02:51;19.60;96.70
45115;DHT22;30877;43.706;10.780;2023-05-10T11:08:21;19.70;96.70
45115;DHT22;30877;43.706;10.780;2023-05-10T11:11:05;19.60;96.70
45115;DHT22;30877;43.706;10.780;2023-05-10T11:13:41;19.70;96.70
45115;DHT22;30877;43.706;10.780;2023-05-10T11:16:13;19.70;96.70
45115;DHT22;30877;43.706;10.780;2023-05-10T11:18:53;19.70;96.70
45115;DHT22;30877;43.706;10.780;2023-05-10T11:21:22;19.70;96.70
45115;DHT22;30877;43.706;10.780;2023-05-10T11:23:52;19.60;96.70
45115;DHT22;30877;43.706;10.780;2023-05-10T11:26:27;19.40;96.70
45115;DHT22;30877;43.706;10.780;2023-05-10T11:28:58;19.50;96.70
45115;DHT22;30877;43.706;10.780;2023-05-10T11:31:28;19.40;96.70
45115;DHT22;30877;43.706;10.780;2023-05-10T11:33:59;19.50;96.70
45115;DHT22;30877;43.706;10.780;2023-05-10T11:36:33;19.50;96.70
45115;DHT22;30877;43.706;10.780;2023-05-10T11:39:03;19.50;96.70
45115;DHT22;30877;43.706;10.780;2023-05-10T11:41:32;19.50;96.70
45115;DHT22;30877;43.706;10.780;2023-05-10T11:44:02;19.40;96.70
45115;DHT22;30877;43.706;10.780;2023-05-10T11:46:30;19.30;96.70
45115;DHT22;30877;43.706;10.780;2023-05-10T11:48:59;19.30;96.70
45115;DHT22;30877;43.706;10.780;2023-05-10T11:51:32;19.20;96.70
45115;DHT22;30877;43.706;10.780;2023-05-10T11:54:00;19.20;96.70
45115;DHT22;30877;43.706;10.780;2023-05-10T11:56:28;19.30;96.70
45115;DHT22;30877;43.706;10.780;2023-05-10T11:58:58;19.30;96.70
45115;DHT22;30877;43.706;10.780;2023-05-10T12:01:28;19.20;96.70
45115;DHT22;30877;43.706;10.780;2023-05-10T12:03:57;19.20;96.70
45115;DHT22;30877;43.706;10.780;2023-05-10T12:06:29;19.20;96.70
45115;DHT22;30877;43.706;10.780;2023-05-10T12:08:59;19.40;96.70
45115;DHT22;30877;43.706;10.780;2023-05-10T12:11:28;19.40;96.70
45115;DHT22;30877;43.706;10.780;2023-05-10T12:13:58;19.50;96.70
45115;DHT22;30877;43.706;10.780;2023-05-10T12:16:28;19.50;96.70
45115;DHT22;30877;43.706;10.780;2023-05-10T12:18:58;19.60;96.70
45115;DHT22;30877;43.706;10.780;2023-05-10T12:21:28;19.60;96.70
45115;DHT22;30877;43.706;10.780;2023-05-10T12:24:01;19.60;96.70
45115;DHT22;30877;43.706;10.780;2023-05-10T12:26:30;19.60;96.70
45115;DHT22;30877;43.706;10.780;2023-05-10T12:29:14;19.50;96.70
45115;DHT22;30877;43.706;10.780;2023-05-10T12:31:51;19.50;96.70
45115;DHT22;30877;43.706;10.780;2023-05-10T12:34:26;19.50;96.70
45115;DHT22;30877;43.706;10.780;2023-05-10T12:36:55;19.50;96.70
45115;DHT22;30877;43.706;10.780;2023-05-10T12:39:23;19.50;96.70
45115;DHT22;30877;43.706;10.780;2023-05-10T12:41:51;19.40;96.70
45115;DHT22;30877;43.706;10.780;2023-05-10T12:44:22;19.30;96.70
45115;DHT22;30877;43.706;10.780;2023-05-10T12:46:50;19.20;96.70
45115;DHT22;30877;43.706;10.780;2023-05-10T12:49:18;19.10;96.70
45115;DHT22;30877;43.706;10.780;2023-05-10T12:51:47;19.10;96.70
45115;DHT22;30877;43.706;10.780;2023-05-10T12:54:15;18.90;96.70
45115;DHT22;30877;43.706;10.780;2023-05-10T12:56:43;18.90;96.70
45115;DHT22;30877;43.706;10.780;2023-05-10T12:59:12;18.80;96.70
45115;DHT22;30877;43.706;10.780;2023-05-10T13:01:42;18.70;96.70
45115;DHT22;30877;43.706;10.780;2023-05-10T13:04:10;18.60;96.70
45115;DHT22;30877;43.706;10.780;2023-05-10T13:06:38;18.60;96.70
45115;DHT22;30877;43.706;10.780;2023-05-10T13:09:06;18.60;96.70
45115;DHT22;30877;43.706;10.780;2023-05-10T13:11:34;18.50;96.70
45115;DHT22;30877;43.706;10.780;2023-05-10T13:14:02;18.30;96.70
45115;DHT22;30877;43.706;10.780;2023-05-10T13:16:31;18.30;96.70
45115;DHT22;30877;43.706;10.780;2023-05-10T13:19:00;18.30;96.70
45115;DHT22;30877;43.706;10.780;2023-05-10T13:21:29;18.30;96.70
45115;DHT22;30877;43.706;10.780;2023-05-10T13:23:58;18.20;96.70
45115;DHT22;30877;43.706;10.780;2023-05-10T13:26:28;18.10;96.70
45115;DHT22;30877;43.706;10.780;2023-05-10T13:28:56;18.10;96.70
45115;DHT22;30877;43.706;10.780;2023-05-10T13:31:25;18.00;96.70
45115;DHT22;30877;43.706;10.780;2023-05-10T13:33:53;17.90;96.70
45115;DHT22;30877;43.706;10.780;2023-05-10T13:36:23;17.90;96.70
45115;DHT22;30877;43.706;10.780;2023-05-10T13:38:51;17.80;96.70
45115;DHT22;30877;43.706;10.780;2023-05-10T13:41:20;17.60;96.70
45115;DHT22;30877;43.706;10.780;2023-05-10T13:43:49;17.60;96.70
45115;DHT22;30877;43.706;10.780;2023-05-10T13:46:17;17.70;96.70
45115;DHT22;30877;43.706;10.780;2023-05-10T13:48:45;17.70;96.70
45115;DHT22;30877;43.706;10.780;2023-05-10T13:51:13;17.70;96.70
45115;DHT22;30877;43.706;10.780;2023-05-10T13:53:43;17.70;96.70
45115;DHT22;30877;43.706;10.780;2023-05-10T13:56:11;17.70;96.70
45115;DHT22;30877;43.706;10.780;2023-05-10T13:58:40;17.60;96.70
45115;DHT22;30877;43.706;10.780;2023-05-10T14:01:08;17.80;96.70
45115;DHT22;30877;43.706;10.780;2023-05-10T14:03:36;17.70;96.70
45115;DHT22;30877;43.706;10.780;2023-05-10T14:06:04;17.70;96.70
45115;DHT22;30877;43.706;10.780;2023-05-10T14:08:35;17.80;96.70
45115;DHT22;30877;43.706;10.780;2023-05-10T14:11:06;17.70;96.70
45115;DHT22;30877;43.706;10.780;2023-05-10T14:13:34;17.80;96.70
45115;DHT22;30877;43.706;10.780;2023-05-10T14:16:02;17.70;96.70
45115;DHT22;30877;43.706;10.780;2023-05-10T14:18:30;17.60;96.70
45115;DHT22;30877;43.706;10.780;2023-05-10T14:20:58;17.70;96.70
45115;DHT22;30877;43.706;10.780;2023-05-10T14:23:27;17.80;96.70
45115;DHT22;30877;43.706;10.780;2023-05-10T14:25:56;17.90;96.70
45115;DHT22;30877;43.706;10.780;2023-05-10T14:28:26;17.80;96.70
45115;DHT22;30877;43.706;10.780;2023-05-10T14:30:54;18.00;96.70
45115;DHT22;30877;43.706;10.780;2023-05-10T14:33:22;18.10;96.70
45115;DHT22;30877;43.706;10.780;2023-05-10T14:35:51;18.00;96.70
45115;DHT22;30877;43.706;10.780;2023-05-10T14:38:19;18.20;96.70
45115;DHT22;30877;43.706;10.780;2023-05-10T14:40:47;18.30;96.70
45115;DHT22;30877;43.706;10.780;2023-05-10T14:43:15;18.50;96.70
45115;DHT22;30877;43.706;10.780;2023-05-10T14:45:44;18.50;96.70
45115;DHT22;30877;43.706;10.780;2023-05-10T14:48:13;18.50;96.70
45115;DHT22;30877;43.706;10.780;2023-05-10T14:50:44;18.50;96.70
45115;DHT22;30877;43.706;10.780;2023-05-10T14:53:13;18.50;96.70
45115;DHT22;30877;43.706;10.780;2023-05-10T14:55:41;18.50;96.70
45115;DHT22;30877;43.706;10.780;2023-05-10T14:58:10;18.40;96.70
45115;DHT22;30877;43.706;10.780;2023-05-10T15:00:38;18.30;96.70
45115;DHT22;30877;43.706;10.780;2023-05-10T15:03:08;18.30;96.70
45115;DHT22;30877;43.706;10.780;2023-05-10T15:05:37;18.20;96.70
45115;DHT22;30877;43.706;10.780;2023-05-10T15:08:05;18.10;96.70
45115;DHT22;30877;43.706;10.780;2023-05-10T15:10:33;18.20;96.70
45115;DHT22;30877;43.706;10.780;2023-05-10T15:13:02;18.30;96.70
45115;DHT22;30877;43.706;10.780;2023-05-10T15:15:31;18.40;96.70
45115;DHT22;30877;43.706;10.780;2023-05-10T15:17:59;18.60;96.70
45115;DHT22;30877;43.706;10.780;2023-05-10T15:20:29;18.90;96.70
45115;DHT22;30877;43.706;10.780;2023-05-10T15:22:57;19.10;96.70
45115;DHT22;30877;43.706;10.780;2023-05-10T15:25:25;19.50;96.70
45115;DHT22;30877;43.706;10.780;2023-05-10T15:27:53;19.60;96.70
45115;DHT22;30877;43.706;10.780;2023-05-10T15:30:22;19.70;96.70
45115;DHT22;30877;43.706;10.780;2023-05-10T15:32:50;19.70;96.70
45115;DHT22;30877;43.706;10.780;2023-05-10T15:35:18;19.50;96.70
45115;DHT22;30877;43.706;10.780;2023-05-10T15:37:48;19.50;96.70
45115;DHT22;30877;43.706;10.780;2023-05-10T15:40:17;19.40;96.70
45115;DHT22;30877;43.706;10.780;2023-05-10T15:42:45;19.30;96.70
45115;DHT22;30877;43.706;10.780;2023-05-10T15:45:13;19.20;96.70
45115;DHT22;30877;43.706;10.780;2023-05-10T15:47:43;19.30;96.70
45115;DHT22;30877;43.706;10.780;2023-05-10T15:50:12;19.20;96.70
45115;DHT22;30877;43.706;10.780;2023-05-10T15:52:40;19.30;96.70
45115;DHT22;30877;43.706;10.780;2023-05-10T15:55:10;19.10;96.70
45115;DHT22;30877;43.706;10.780;2023-05-10T15:57:43;19.20;96.70
45115;DHT22;30877;43.706;10.780;2023-05-10T16:00:12;19.30;96.70
45115;DHT22;30877;43.706;10.780;2023-05-10T16:02:40;19.10;96.70
45115;DHT22;30877;43.706;10.780;2023-05-10T16:05:09;19.10;96.70
45115;DHT22;30877;43.706;10.780;2023-05-10T16:07:37;19.20;96.70
45115;DHT22;30877;43.706;10.780;2023-05-10T16:10:10;19.30;96.70
45115;DHT22;30877;43.706;10.780;2023-05-10T16:12:38;19.30;96.70
45115;DHT22;30877;43.706;10.780;2023-05-10T16:15:08;19.40;96.70
45115;DHT22;30877;43.706;10.780;2023-05-10T16:17:36;19.40;96.70
45115;DHT22;30877;43.706;10.780;2023-05-10T16:20:05;19.30;96.70
45115;DHT22;30877;43.706;10.780;2023-05-10T16:22:34;19.20;96.70
45115;DHT22;30877;43.706;10.780;2023-05-10T16:25:03;19.10;96.70
45115;DHT22;30877;43.706;10.780;2023-05-10T16:27:33;19.00;96.70
45115;DHT22;30877;43.706;10.780;2023-05-10T16:30:01;19.00;96.70
45115;DHT22;30877;43.706;10.780;2023-05-10T16:32:30;18.90;96.70
45115;DHT22;30877;43.706;10.780;2023-05-10T16:34:58;18.90;96.70
45115;DHT22;30877;43.706;10.780;2023-05-10T16:37:27;18.80;96.70
45115;DHT22;30877;43.706;10.780;2023-05-10T16:39:55;18.80;96.70
45115;DHT22;30877;43.706;10.780;2023-05-10T16:42:24;18.80;96.70
45115;DHT22;30877;43.706;10.780;2023-05-10T16:44:54;18.80;96.70
45115;DHT22;30877;43.706;10.780;2023-05-10T16:47:23;18.70;96.70
45115;DHT22;30877;43.706;10.780;2023-05-10T16:49:53;18.70;96.70
45115;DHT22;30877;43.706;10.780;2023-05-10T16:52:21;18.70;96.70
45115;DHT22;30877;43.706;10.780;2023-05-10T16:54:50;18.60;96.70
45115;DHT22;30877;43.706;10.780;2023-05-10T16:57:21;18.50;96.70
45115;DHT22;30877;43.706;10.780;2023-05-10T16:59:50;18.50;96.70
45115;DHT22;30877;43.706;10.780;2023-05-10T17:02:23;18.40;96.70
45115;DHT22;30877;43.706;10.780;2023-05-10T17:04:52;18.40;96.70
45115;DHT22;30877;43.706;10.780;2023-05-10T17:07:22;18.40;96.70
45115;DHT22;30877;43.706;10.780;2023-05-10T17:09:53;18.30;96.70
45115;DHT22;30877;43.706;10.780;2023-05-10T17:12:21;18.30;96.70
45115;DHT22;30877;43.706;10.780;2023-05-10T17:14:50;18.20;96.70
45115;DHT22;30877;43.706;10.780;2023-05-10T17:17:18;18.10;96.70
45115;DHT22;30877;43.706;10.780;2023-05-10T17:19:48;18.10;96.70
45115;DHT22;30877;43.706;10.780;2023-05-10T17:22:17;17.80;96.70
45115;DHT22;30877;43.706;10.780;2023-05-10T17:24:46;17.70;96.70
45115;DHT22;30877;43.706;10.780;2023-05-10T17:27:14;17.80;96.70